Terminal Aerodrome Forecast
Issued by NWS

Home | Current Version | Previous Version | Text Only | Print | Product List | Glossary On
Versions: 1 2 3 4 5 6 7 8 9 10 11 12 13
000
FTUS46 KSEW 260900 AAA
TAFOLM
TAF AMD
KOLM 260908Z 2609/2706 21004KT P6SM OVC040
     FM261100 21003KT P6SM OVC020
     FM262200 VRB05KT P6SM SCT020 OVC040
     FM270500 36002KT P6SM OVC250=

USA.gov is the U.S. government's official web portal to all federal, state and local government web resources and services.